createdAt,value
2022-12-29T00:00:11.738Z,7.83
2022-12-29T00:02:39.216Z,7.78
2022-12-29T00:05:08.004Z,7.78
2022-12-29T00:07:35.431Z,7.76
2022-12-29T00:10:28.421Z,7.76
2022-12-29T00:13:17.301Z,7.69
2022-12-29T00:15:44.641Z,7.72
2022-12-29T00:18:12.162Z,7.77
2022-12-29T00:20:58.198Z,7.76
2022-12-29T00:23:44.075Z,7.83
2022-12-29T00:26:36.589Z,7.82
2022-12-29T00:29:22.281Z,7.84
2022-12-29T00:32:08.268Z,7.84
2022-12-29T00:34:54.265Z,7.82
2022-12-29T00:37:43.593Z,7.83
2022-12-29T00:40:29.551Z,7.86
2022-12-29T00:43:15.453Z,7.89
2022-12-29T00:45:42.984Z,7.91
2022-12-29T00:48:10.182Z,7.91
2022-12-29T00:50:37.499Z,7.90
2022-12-29T00:53:04.797Z,7.95
2022-12-29T00:55:32.291Z,7.93
2022-12-29T00:57:59.663Z,7.94
2022-12-29T01:00:26.987Z,7.92
2022-12-29T01:02:54.575Z,7.89
2022-12-29T01:05:22.096Z,7.86
2022-12-29T01:07:49.266Z,7.86
2022-12-29T01:10:16.634Z,7.89
2022-12-29T01:12:46.267Z,7.86
2022-12-29T01:15:15.553Z,7.84
2022-12-29T01:17:43.454Z,7.82
2022-12-29T01:20:11.968Z,7.86
2022-12-29T01:22:39.615Z,7.83
2022-12-29T01:25:07.724Z,7.86
2022-12-29T01:27:35.231Z,7.82
2022-12-29T01:30:02.447Z,7.84
2022-12-29T01:32:29.742Z,7.84
2022-12-29T01:34:56.965Z,7.83
2022-12-29T01:37:24.269Z,7.88
2022-12-29T01:39:51.407Z,7.89
2022-12-29T01:42:20.968Z,7.89
2022-12-29T01:44:50.003Z,7.93
2022-12-29T01:47:31.935Z,7.91
2022-12-29T01:50:04.761Z,7.93
2022-12-29T01:52:33.987Z,7.90
2022-12-29T01:55:03.874Z,7.91
2022-12-29T01:57:34.152Z,7.91
2022-12-29T02:00:10.418Z,7.89
2022-12-29T02:02:38.115Z,7.89
2022-12-29T02:05:12.629Z,7.87
2022-12-29T02:07:43.531Z,7.81
2022-12-29T02:10:10.790Z,7.76
2022-12-29T02:12:38.162Z,7.72
2022-12-29T02:15:06.125Z,7.72
2022-12-29T02:18:16.022Z,7.74
2022-12-29T02:21:04.606Z,7.76
2022-12-29T02:24:07.697Z,7.73
2022-12-29T02:27:07.277Z,7.74
2022-12-29T02:29:51.329Z,7.79
2022-12-29T02:32:31.200Z,7.82
2022-12-29T02:35:01.819Z,7.84
2022-12-29T02:37:41.254Z,7.86
2022-12-29T02:40:25.117Z,7.91
2022-12-29T02:42:56.537Z,7.89
2022-12-29T02:45:33.241Z,7.89
2022-12-29T02:48:11.177Z,7.90
2022-12-29T02:50:41.992Z,7.90
2022-12-29T02:53:12.486Z,7.90
2022-12-29T02:55:42.229Z,7.92
2022-12-29T02:58:23.540Z,7.95
2022-12-29T03:01:17.863Z,7.98
2022-12-29T03:04:12.121Z,8.06
2022-12-29T03:07:01.272Z,8.08
2022-12-29T03:09:49.668Z,8.15
2022-12-29T03:13:06.188Z,8.15
2022-12-29T03:16:08.199Z,8.21
2022-12-29T03:19:08.307Z,8.29
2022-12-29T03:22:18.918Z,8.36
2022-12-29T03:24:50.687Z,8.36
2022-12-29T03:27:39.628Z,8.41
2022-12-29T03:30:08.231Z,8.45
2022-12-29T03:32:49.971Z,8.46
2022-12-29T03:35:18.955Z,8.46
2022-12-29T03:38:20.489Z,8.51
2022-12-29T03:40:54.108Z,8.53
2022-12-29T03:43:22.802Z,8.57
2022-12-29T03:45:50.219Z,8.57
2022-12-29T03:48:17.644Z,8.56
2022-12-29T03:50:45.620Z,8.58
2022-12-29T03:53:13.157Z,8.59
2022-12-29T03:55:40.760Z,8.66
2022-12-29T03:58:08.320Z,8.60
2022-12-29T04:00:35.903Z,8.62
2022-12-29T04:03:03.225Z,8.67
2022-12-29T04:05:30.695Z,8.77
2022-12-29T04:07:58.223Z,8.77
2022-12-29T04:10:25.554Z,8.74
2022-12-29T04:12:53.035Z,8.75
2022-12-29T04:15:20.523Z,8.80
2022-12-29T04:17:47.833Z,8.82
2022-12-29T04:20:33.707Z,8.81
2022-12-29T04:23:02.329Z,8.79
2022-12-29T04:25:29.873Z,8.84
2022-12-29T04:27:57.192Z,8.82
2022-12-29T04:30:38.546Z,8.87
2022-12-29T04:33:06.542Z,8.91
2022-12-29T04:35:33.889Z,8.95
2022-12-29T04:38:01.387Z,8.93
2022-12-29T04:40:28.601Z,8.96
2022-12-29T04:42:56.012Z,8.97
2022-12-29T04:45:23.195Z,9.00
2022-12-29T04:47:50.389Z,9.02
2022-12-29T04:50:17.801Z,9.09
2022-12-29T04:52:45.158Z,9.08
2022-12-29T04:55:12.330Z,9.05
2022-12-29T04:57:39.581Z,9.06
2022-12-29T05:00:07.487Z,9.07
2022-12-29T05:02:34.996Z,9.08
2022-12-29T05:05:02.323Z,9.06
2022-12-29T05:07:29.533Z,9.04
2022-12-29T05:09:56.765Z,9.07
2022-12-29T05:12:23.898Z,9.11
2022-12-29T05:14:51.138Z,9.15
2022-12-29T05:17:18.356Z,9.18
2022-12-29T05:19:45.796Z,9.12
2022-12-29T05:22:12.942Z,9.08
2022-12-29T05:24:40.137Z,9.13
2022-12-29T05:27:07.351Z,9.11
2022-12-29T05:29:34.803Z,9.10
2022-12-29T05:32:02.058Z,9.15
2022-12-29T05:34:29.225Z,9.18
2022-12-29T05:36:56.357Z,9.18
2022-12-29T05:39:23.668Z,9.21
2022-12-29T05:41:50.869Z,9.26
2022-12-29T05:44:18.247Z,9.30
2022-12-29T05:46:45.526Z,9.30
2022-12-29T05:49:12.777Z,9.32
2022-12-29T05:51:40.175Z,9.38
2022-12-29T05:54:07.304Z,9.40
2022-12-29T05:56:34.468Z,9.42
2022-12-29T05:59:01.693Z,9.47
2022-12-29T06:01:28.944Z,9.49
2022-12-29T06:03:56.215Z,9.50
2022-12-29T06:06:23.537Z,9.54
2022-12-29T06:08:50.638Z,9.57
2022-12-29T06:11:17.800Z,9.61
2022-12-29T06:13:45.009Z,9.61
2022-12-29T06:16:12.276Z,9.64
2022-12-29T06:18:39.511Z,9.66
2022-12-29T06:21:06.727Z,9.63
2022-12-29T06:23:34.437Z,9.64
2022-12-29T06:26:01.617Z,9.70
2022-12-29T06:28:28.803Z,9.73
2022-12-29T06:30:55.973Z,9.78
2022-12-29T06:33:23.211Z,9.79
2022-12-29T06:35:50.567Z,9.81
2022-12-29T06:38:17.686Z,9.83
2022-12-29T06:40:46.053Z,9.87
2022-12-29T06:43:13.396Z,9.86
2022-12-29T06:45:41.170Z,9.86
2022-12-29T06:48:08.822Z,9.87
2022-12-29T06:50:36.078Z,9.87
2022-12-29T06:53:03.317Z,9.90
2022-12-29T06:55:30.626Z,9.90
2022-12-29T06:57:59.400Z,9.92
2022-12-29T07:00:26.943Z,9.92
2022-12-29T07:02:56.190Z,9.93
2022-12-29T07:05:23.516Z,9.92
2022-12-29T07:07:50.684Z,9.91
2022-12-29T07:10:17.903Z,9.94
2022-12-29T07:12:45.088Z,9.96
2022-12-29T07:15:13.660Z,9.96
2022-12-29T07:17:41.203Z,9.94
2022-12-29T07:20:09.189Z,9.92
2022-12-29T07:22:36.521Z,9.90
2022-12-29T07:25:04.275Z,9.93
2022-12-29T07:27:31.469Z,9.94
2022-12-29T07:29:58.629Z,9.92
2022-12-29T07:32:25.815Z,9.97
2022-12-29T07:34:53.047Z,9.99
2022-12-29T07:37:20.527Z,9.93
2022-12-29T07:39:48.133Z,9.94
2022-12-29T07:42:15.273Z,9.91
2022-12-29T07:44:42.380Z,9.89
2022-12-29T07:47:09.584Z,9.89
2022-12-29T07:49:36.780Z,9.93
2022-12-29T07:52:04.067Z,9.93
2022-12-29T07:54:31.232Z,9.93
2022-12-29T07:57:01.033Z,9.95
2022-12-29T07:59:28.288Z,9.96
2022-12-29T08:01:55.580Z,10.03
2022-12-29T08:04:22.988Z,10.03
2022-12-29T08:06:51.374Z,10.04
2022-12-29T08:09:22.609Z,10.06
2022-12-29T08:11:51.892Z,10.07
2022-12-29T08:14:19.369Z,10.11
2022-12-29T08:16:46.685Z,10.10
2022-12-29T08:19:14.433Z,10.09
2022-12-29T08:21:41.627Z,10.14
2022-12-29T08:24:09.348Z,10.16
2022-12-29T08:26:36.552Z,10.14
2022-12-29T08:29:03.662Z,10.16
2022-12-29T08:31:30.980Z,10.14
2022-12-29T08:33:58.165Z,10.11
2022-12-29T08:36:25.286Z,10.12
2022-12-29T08:38:52.479Z,10.13
2022-12-29T08:41:19.629Z,10.14
2022-12-29T08:43:48.202Z,10.16
2022-12-29T08:46:15.865Z,10.14
2022-12-29T08:48:43.100Z,10.14
2022-12-29T08:51:10.304Z,10.18
2022-12-29T08:53:37.437Z,10.20
2022-12-29T08:56:05.737Z,10.21
2022-12-29T08:58:33.194Z,10.24
2022-12-29T09:01:00.405Z,10.27
2022-12-29T09:06:17.778Z,10.35
2022-12-29T09:08:45.324Z,10.33
2022-12-29T09:11:21.473Z,10.37
2022-12-29T09:13:49.163Z,10.33
2022-12-29T09:16:17.713Z,10.36
2022-12-29T09:18:45.615Z,10.39
2022-12-29T09:21:13.620Z,10.44
2022-12-29T09:23:41.542Z,10.48
2022-12-29T09:26:09.521Z,10.54
2022-12-29T09:28:37.741Z,10.57
2022-12-29T09:31:05.208Z,10.60
2022-12-29T09:33:34.337Z,10.60
2022-12-29T09:36:01.973Z,10.68
2022-12-29T09:38:29.684Z,10.68
2022-12-29T09:41:02.858Z,10.70
2022-12-29T09:43:53.676Z,10.74
2022-12-29T09:46:28.877Z,10.73
2022-12-29T09:49:09.612Z,10.69
2022-12-29T09:51:39.533Z,10.68
2022-12-29T09:54:32.063Z,10.74
2022-12-29T09:56:59.667Z,10.80
2022-12-29T09:59:55.445Z,10.87
2022-12-29T10:02:39.073Z,10.96
2022-12-29T10:05:16.373Z,10.96
2022-12-29T10:07:53.767Z,10.95
2022-12-29T10:10:20.972Z,10.97
2022-12-29T10:13:00.130Z,10.97
2022-12-29T10:15:48.620Z,10.98
2022-12-29T10:18:40.780Z,11.05
2022-12-29T10:21:26.495Z,11.13
2022-12-29T10:23:54.568Z,11.16
2022-12-29T10:26:27.502Z,11.19
2022-12-29T10:28:58.844Z,11.26
2022-12-29T10:31:40.834Z,11.30
2022-12-29T10:34:38.248Z,11.40
2022-12-29T10:37:12.888Z,11.51
2022-12-29T10:39:59.253Z,11.62
2022-12-29T10:42:28.237Z,11.71
2022-12-29T10:44:56.372Z,11.79
2022-12-29T10:47:26.736Z,11.87
2022-12-29T10:49:59.367Z,11.88
2022-12-29T10:52:27.908Z,11.95
2022-12-29T10:55:18.375Z,11.90
2022-12-29T10:57:46.557Z,11.88
2022-12-29T11:00:21.613Z,11.85
2022-12-29T11:03:00.101Z,11.89
2022-12-29T11:05:36.042Z,11.88
2022-12-29T11:08:09.492Z,11.87
2022-12-29T11:10:39.950Z,11.88
2022-12-29T11:13:19.034Z,11.87
2022-12-29T11:15:50.908Z,11.88
2022-12-29T11:18:26.977Z,11.88
2022-12-29T11:21:02.410Z,11.85
2022-12-29T11:23:31.103Z,11.88
2022-12-29T11:26:26.471Z,11.83
2022-12-29T11:29:09.823Z,11.81
2022-12-29T11:31:45.281Z,11.80
2022-12-29T11:34:27.862Z,11.79
2022-12-29T11:37:01.679Z,11.77
2022-12-29T11:39:38.085Z,11.79
2022-12-29T11:42:10.622Z,11.70
2022-12-29T11:44:42.773Z,11.62
2022-12-29T11:47:15.082Z,11.52
2022-12-29T11:49:42.465Z,11.54
2022-12-29T11:52:10.469Z,11.51
2022-12-29T11:54:39.204Z,11.46
2022-12-29T11:57:15.255Z,11.48
2022-12-29T11:59:45.172Z,11.43
2022-12-29T12:02:51.407Z,11.37
2022-12-29T12:05:28.157Z,11.25
2022-12-29T12:08:09.301Z,11.20
2022-12-29T12:10:45.931Z,11.23
2022-12-29T12:13:27.083Z,11.20
2022-12-29T12:16:00.733Z,11.09
2022-12-29T12:18:31.869Z,10.95
2022-12-29T12:21:06.621Z,10.92
2022-12-29T12:23:43.358Z,10.78
2022-12-29T12:26:12.761Z,10.68
2022-12-29T12:28:57.097Z,10.66
2022-12-29T12:31:46.166Z,10.63
2022-12-29T12:34:41.057Z,10.56
2022-12-29T12:37:16.581Z,10.50
2022-12-29T12:39:48.782Z,10.47
2022-12-29T12:42:26.163Z,10.52
2022-12-29T12:45:27.612Z,10.55
2022-12-29T12:48:23.373Z,10.44
2022-12-29T12:51:08.860Z,10.42
2022-12-29T12:53:55.194Z,10.48
2022-12-29T12:56:31.595Z,10.46
2022-12-29T12:59:13.289Z,10.46
2022-12-29T13:02:02.282Z,10.55
2022-12-29T13:05:08.148Z,10.68
2022-12-29T13:07:51.243Z,10.84
2022-12-29T13:10:54.286Z,10.94
2022-12-29T13:13:27.616Z,10.86
2022-12-29T13:16:21.981Z,10.82
2022-12-29T13:18:55.555Z,11.07
2022-12-29T13:22:00.142Z,11.40
2022-12-29T13:24:41.298Z,11.50
2022-12-29T13:27:54.124Z,11.39
2022-12-29T13:30:23.568Z,11.34
2022-12-29T13:32:59.063Z,11.29
2022-12-29T13:35:59.373Z,11.25
2022-12-29T13:38:45.456Z,11.18
2022-12-29T13:41:15.397Z,11.15
2022-12-29T13:43:49.200Z,11.07
2022-12-29T13:46:25.125Z,11.09
2022-12-29T13:49:02.459Z,11.04
2022-12-29T13:51:30.214Z,11.02
2022-12-29T13:54:11.426Z,11.01
2022-12-29T13:56:50.572Z,10.94
2022-12-29T13:59:36.724Z,10.90
2022-12-29T14:02:05.555Z,10.91
2022-12-29T14:04:34.369Z,10.88
2022-12-29T14:07:05.674Z,10.85
2022-12-29T14:09:55.055Z,10.89
2022-12-29T14:12:23.665Z,10.86
2022-12-29T14:14:51.297Z,10.85
2022-12-29T14:17:22.015Z,10.86
2022-12-29T14:19:53.975Z,10.85
2022-12-29T14:22:33.052Z,10.82
2022-12-29T14:25:01.734Z,10.85
2022-12-29T14:27:29.169Z,10.83
2022-12-29T14:29:56.539Z,10.79
2022-12-29T14:32:26.837Z,10.77
2022-12-29T14:34:59.413Z,10.70
2022-12-29T14:37:37.060Z,10.64
2022-12-29T14:40:06.199Z,10.65
2022-12-29T14:42:34.385Z,10.61
2022-12-29T14:45:06.557Z,10.56
2022-12-29T14:47:39.720Z,10.63
2022-12-29T14:50:22.551Z,10.57
2022-12-29T14:53:02.006Z,10.58
2022-12-29T14:55:48.077Z,10.51
2022-12-29T14:58:30.310Z,10.51
2022-12-29T15:00:58.683Z,10.47
2022-12-29T15:03:51.957Z,10.47
2022-12-29T15:06:23.272Z,10.48
2022-12-29T15:09:01.188Z,10.44
2022-12-29T15:11:37.774Z,10.44
2022-12-29T15:14:27.572Z,10.44
2022-12-29T15:16:55.068Z,10.50
2022-12-29T15:19:23.838Z,10.49
2022-12-29T15:21:51.689Z,10.34
2022-12-29T15:24:19.757Z,10.33
2022-12-29T15:26:49.697Z,10.34
2022-12-29T15:29:44.543Z,10.25
2022-12-29T15:32:19.759Z,10.24
2022-12-29T15:34:50.219Z,10.24
2022-12-29T15:37:22.375Z,10.22
2022-12-29T15:39:50.555Z,10.14
2022-12-29T15:42:26.949Z,10.15
2022-12-29T15:45:03.229Z,10.07
2022-12-29T15:47:37.178Z,10.07
2022-12-29T15:50:10.471Z,9.99
2022-12-29T15:52:40.294Z,9.94
2022-12-29T15:55:20.969Z,9.91
2022-12-29T15:57:48.445Z,9.93
2022-12-29T16:00:27.973Z,9.92
2022-12-29T16:02:57.083Z,9.92
2022-12-29T16:05:25.161Z,9.90
2022-12-29T16:07:54.590Z,9.90
2022-12-29T16:10:31.552Z,9.87
2022-12-29T16:13:22.165Z,9.82
2022-12-29T16:15:49.465Z,9.83
2022-12-29T16:18:28.784Z,9.87
2022-12-29T16:20:56.869Z,9.82
2022-12-29T16:23:26.775Z,9.86
2022-12-29T16:25:58.936Z,9.88
2022-12-29T16:28:33.156Z,9.92
2022-12-29T16:31:07.472Z,9.85
2022-12-29T16:33:41.370Z,9.80
2022-12-29T16:36:32.106Z,9.79
2022-12-29T16:39:22.719Z,9.80
2022-12-29T16:41:51.327Z,9.73
2022-12-29T16:44:23.130Z,9.75
2022-12-29T16:47:08.475Z,9.72
2022-12-29T16:49:37.125Z,9.70
2022-12-29T16:52:31.021Z,9.68
2022-12-29T16:55:02.111Z,9.68
2022-12-29T16:57:34.926Z,9.66
2022-12-29T17:00:06.105Z,9.63
2022-12-29T17:02:34.807Z,9.63
2022-12-29T17:05:02.242Z,9.69
2022-12-29T17:07:30.169Z,9.72
2022-12-29T17:09:57.835Z,9.71
2022-12-29T17:12:27.676Z,9.69
2022-12-29T17:14:59.141Z,9.68
2022-12-29T17:17:33.901Z,9.69
2022-12-29T17:20:05.422Z,9.72
2022-12-29T17:22:33.442Z,9.71
2022-12-29T17:25:03.061Z,9.69
2022-12-29T17:27:38.325Z,9.70
2022-12-29T17:30:12.038Z,9.73
2022-12-29T17:32:41.073Z,9.69
2022-12-29T17:35:19.225Z,9.78
2022-12-29T17:37:46.779Z,9.77
2022-12-29T17:40:21.446Z,9.81
2022-12-29T17:42:50.453Z,9.83
2022-12-29T17:45:21.009Z,9.81
2022-12-29T17:47:48.606Z,9.80
2022-12-29T17:50:18.608Z,9.88
2022-12-29T17:53:00.194Z,10.00
2022-12-29T17:55:34.715Z,10.00
2022-12-29T17:58:33.851Z,9.96
2022-12-29T18:01:02.142Z,9.98
2022-12-29T18:03:32.108Z,9.99
2022-12-29T18:06:00.377Z,9.95
2022-12-29T18:08:30.621Z,9.92
2022-12-29T18:10:58.167Z,9.92
2022-12-29T18:13:43.609Z,9.94
2022-12-29T18:16:14.753Z,9.89
2022-12-29T18:18:42.275Z,9.91
2022-12-29T18:21:17.305Z,9.86
2022-12-29T18:23:44.814Z,9.84
2022-12-29T18:26:19.616Z,9.85
2022-12-29T18:28:53.071Z,9.83
2022-12-29T18:31:23.218Z,9.80
2022-12-29T18:33:51.811Z,9.80
2022-12-29T18:36:19.718Z,9.78
2022-12-29T18:38:47.241Z,9.77
2022-12-29T18:41:21.623Z,9.77
2022-12-29T18:43:49.594Z,9.78
2022-12-29T18:46:22.417Z,9.74
2022-12-29T18:48:51.351Z,9.78
2022-12-29T18:51:20.854Z,9.77
2022-12-29T18:53:49.092Z,9.74
2022-12-29T18:56:16.497Z,9.74
2022-12-29T18:58:43.827Z,9.74
2022-12-29T19:01:23.258Z,9.70
2022-12-29T19:03:51.135Z,9.72
2022-12-29T19:06:19.409Z,9.69
2022-12-29T19:08:46.913Z,9.70
2022-12-29T19:11:14.091Z,9.67
2022-12-29T19:13:41.588Z,9.70
2022-12-29T19:20:28.037Z,9.54
2022-12-29T19:22:56.524Z,9.50
2022-12-29T19:25:24.372Z,9.50
2022-12-29T19:27:52.505Z,9.52
2022-12-29T19:30:20.017Z,9.53
2022-12-29T19:32:55.397Z,9.52
2022-12-29T19:35:25.124Z,9.53
2022-12-29T19:37:53.180Z,9.45
2022-12-29T19:40:24.011Z,9.38
2022-12-29T19:42:52.201Z,9.33
2022-12-29T19:45:20.668Z,9.25
2022-12-29T19:47:49.079Z,9.25
2022-12-29T19:50:17.454Z,9.23
2022-12-29T19:52:45.274Z,9.20
2022-12-29T19:55:15.739Z,9.16
2022-12-29T19:57:43.619Z,9.16
2022-12-29T20:00:11.875Z,9.21
2022-12-29T20:02:39.556Z,9.21
2022-12-29T20:05:08.519Z,9.22
2022-12-29T20:07:36.817Z,9.19
2022-12-29T20:10:06.093Z,9.16
2022-12-29T20:12:35.213Z,9.18
2022-12-29T20:15:02.852Z,9.19
2022-12-29T20:18:02.626Z,9.18
2022-12-29T20:20:17.656Z,9.17
2022-12-29T20:22:44.960Z,9.17
2022-12-29T20:25:43.832Z,9.19
2022-12-29T20:28:00.164Z,9.18
2022-12-29T20:30:27.600Z,9.24
2022-12-29T20:32:55.012Z,9.24
2022-12-29T20:35:22.457Z,9.21
2022-12-29T20:37:49.849Z,9.23
2022-12-29T20:40:20.456Z,9.21
2022-12-29T20:42:47.831Z,9.17
2022-12-29T20:45:15.246Z,9.23
2022-12-29T20:47:42.566Z,9.23
2022-12-29T20:50:09.800Z,9.22
2022-12-29T20:52:37.115Z,9.25
2022-12-29T20:55:04.597Z,9.22
2022-12-29T20:57:49.658Z,9.24
2022-12-29T21:00:22.661Z,9.24
2022-12-29T21:02:50.550Z,9.25
2022-12-29T21:05:25.793Z,9.26
2022-12-29T21:07:55.191Z,9.27
2022-12-29T21:10:22.655Z,9.33
2022-12-29T21:12:50.178Z,9.31
2022-12-29T21:15:17.608Z,9.33
2022-12-29T21:17:45.775Z,9.29
2022-12-29T21:20:22.119Z,9.28
2022-12-29T21:22:49.640Z,9.28
2022-12-29T21:25:17.200Z,9.29
2022-12-29T21:27:44.609Z,9.29
2022-12-29T21:30:12.821Z,9.29
2022-12-29T21:32:41.073Z,9.29
2022-12-29T21:35:09.427Z,9.30
2022-12-29T21:37:37.088Z,9.27
2022-12-29T21:40:05.769Z,9.26
2022-12-29T21:42:33.211Z,9.21
2022-12-29T21:45:21.014Z,9.19
2022-12-29T21:48:07.657Z,9.22
2022-12-29T21:50:58.636Z,9.13
2022-12-29T21:53:37.903Z,9.13
2022-12-29T21:56:09.633Z,9.17
2022-12-29T21:58:57.497Z,9.16
2022-12-29T22:01:44.552Z,9.11
2022-12-29T22:04:32.567Z,9.06
2022-12-29T22:07:18.336Z,9.03
2022-12-29T22:10:04.389Z,8.98
2022-12-29T22:12:50.628Z,8.96
2022-12-29T22:15:18.191Z,8.92
2022-12-29T22:17:48.835Z,8.86
2022-12-29T22:20:20.796Z,8.83
2022-12-29T22:22:48.372Z,8.78
2022-12-29T22:25:15.893Z,8.77
2022-12-29T22:27:43.763Z,8.71
2022-12-29T22:30:11.698Z,8.73
2022-12-29T22:32:39.249Z,8.74
2022-12-29T22:35:08.251Z,8.73
2022-12-29T22:37:37.060Z,8.70
2022-12-29T22:40:05.667Z,8.63
2022-12-29T22:42:33.422Z,8.62
2022-12-29T22:45:00.732Z,8.56
2022-12-29T22:47:28.350Z,8.59
2022-12-29T22:49:55.770Z,8.55
2022-12-29T22:52:23.206Z,8.54
2022-12-29T22:54:50.645Z,8.56
2022-12-29T22:57:18.122Z,8.60
2022-12-29T22:59:45.488Z,8.61
2022-12-29T23:02:13.421Z,8.55
2022-12-29T23:05:02.905Z,8.50
2022-12-29T23:07:28.955Z,8.47
2022-12-29T23:09:56.398Z,8.44
2022-12-29T23:12:23.747Z,8.39
2022-12-29T23:14:51.023Z,8.34
2022-12-29T23:17:18.417Z,8.32
2022-12-29T23:19:45.737Z,8.33
2022-12-29T23:22:13.280Z,8.33
2022-12-29T23:24:40.564Z,8.34
2022-12-29T23:27:08.025Z,8.34
2022-12-29T23:29:35.492Z,8.39
2022-12-29T23:32:02.936Z,8.46
2022-12-29T23:34:30.586Z,8.51
2022-12-29T23:37:00.202Z,8.51
2022-12-29T23:39:29.171Z,8.52
2022-12-29T23:41:57.239Z,8.53
2022-12-29T23:44:25.206Z,8.47
2022-12-29T23:46:53.108Z,8.49
2022-12-29T23:49:20.822Z,8.40
2022-12-29T23:51:48.151Z,8.40
2022-12-29T23:54:15.638Z,8.46
2022-12-29T23:56:43.019Z,8.47
2022-12-29T23:59:10.576Z,8.39
